Time,TemperatureF,DewpointF,PressureIn,WindDirection,WindDirectionDegrees,WindSpeedMPH,WindSpeedGustMPH,Humidity,HourlyPrecipIn,Conditions,Clouds,dailyrainin,SolarRadiationWatts/m^2,SoftwareType,DateUTC
2013-08-03 00:00:00,71.1,65.3,29.86,SW,223,2.0,4.0,82,0.00,,---,0.00,0.00,VWS V14.01,2013-08-03 04:00:00,
2013-08-03 00:01:00,71.1,65.3,29.86,SW,223,0.0,4.0,82,0.00,,---,0.00,0.00,VWS V14.01,2013-08-03 04:01:00,
2013-08-03 00:02:00,71.1,65.3,29.86,SW,220,3.0,5.0,82,0.00,,---,0.00,0.00,VWS V14.01,2013-08-03 04:02:00,
2013-08-03 00:05:00,71.0,65.2,29.86,SW,216,1.0,6.0,82,0.00,,---,0.00,0.00,VWS V14.01,2013-08-03 04:05:00,
2013-08-03 00:07:00,71.0,65.6,29.86,SSW,207,2.0,5.0,83,0.00,,---,0.00,0.00,VWS V14.01,2013-08-03 04:07:00,
2013-08-03 00:12:00,70.8,65.4,29.86,SSW,211,1.0,5.0,83,0.00,,---,0.00,0.00,VWS V14.01,2013-08-03 04:12:00,
2013-08-03 00:15:00,70.8,65.4,29.86,SW,215,4.0,6.0,83,0.00,,---,0.00,0.00,VWS V14.01,2013-08-03 04:15:00,
2013-08-03 00:17:00,70.7,65.3,29.86,SW,217,5.0,5.0,83,0.00,,---,0.00,0.00,VWS V14.01,2013-08-03 04:17:00,
2013-08-03 00:20:00,70.7,65.3,29.86,SW,220,0.0,5.0,83,0.00,,---,0.00,0.00,VWS V14.01,2013-08-03 04:20:00,
2013-08-03 00:22:00,70.6,65.5,29.86,SW,221,4.0,5.0,84,0.00,,---,0.00,0.00,VWS V14.01,2013-08-03 04:22:00,
2013-08-03 00:25:00,70.6,65.5,29.86,SSW,201,0.0,7.0,84,0.00,,---,0.00,0.00,VWS V14.01,2013-08-03 04:25:00,
2013-08-03 00:27:00,70.5,65.4,29.86,SW,227,0.0,6.0,84,0.00,,---,0.00,0.00,VWS V14.01,2013-08-03 04:27:00,
2013-08-03 00:30:00,70.5,65.4,29.86,SW,227,1.0,6.0,84,0.00,,---,0.00,0.00,VWS V14.01,2013-08-03 04:30:00,
2013-08-03 00:32:00,70.4,65.3,29.87,WSW,243,0.0,5.0,84,0.00,,---,0.00,0.00,VWS V14.01,2013-08-03 04:32:00,
2013-08-03 00:35:00,70.4,65.3,29.87,SW,232,1.0,5.0,84,0.00,,---,0.00,0.00,VWS V14.01,2013-08-03 04:35:00,
2013-08-03 00:37:00,70.3,65.6,29.87,WSW,250,4.0,5.0,85,0.00,,---,0.00,0.00,VWS V14.01,2013-08-03 04:37:00,
2013-08-03 00:40:00,70.3,65.6,29.87,WSW,238,0.0,5.0,85,0.00,,---,0.00,0.00,VWS V14.01,2013-08-03 04:40:00,
2013-08-03 00:42:00,70.1,65.4,29.87,SW,227,2.0,5.0,85,0.00,,---,0.00,0.00,VWS V14.01,2013-08-03 04:42:00,
2013-08-03 00:45:00,70.1,65.4,29.87,WSW,252,5.0,5.0,85,0.00,,---,0.00,0.00,VWS V14.01,2013-08-03 04:45:00,
2013-08-03 00:47:00,69.9,65.5,29.88,WSW,252,0.0,6.0,86,0.00,,---,0.00,0.00,VWS V14.01,2013-08-03 04:47:00,
2013-08-03 00:50:00,69.9,65.5,29.88,WSW,246,1.0,6.0,86,0.00,,---,0.00,0.00,VWS V14.01,2013-08-03 04:50:00,
2013-08-03 00:52:00,69.8,65.4,29.88,WSW,246,0.0,1.0,86,0.00,,---,0.00,0.00,VWS V14.01,2013-08-03 04:52:00,
2013-08-03 00:55:00,69.7,65.7,29.88,WSW,245,2.0,3.0,87,0.00,,---,0.00,0.00,VWS V14.01,2013-08-03 04:55:00,
2013-08-03 00:57:00,69.6,65.6,29.88,WSW,245,0.0,3.0,87,0.00,,---,0.00,0.00,VWS V14.01,2013-08-03 04:57:00,
2013-08-03 01:00:00,69.5,65.5,29.88,WSW,246,2.0,3.0,87,0.00,,---,0.00,0.00,VWS V14.01,2013-08-03 05:00:00,
2013-08-03 01:02:00,69.4,65.7,29.89,WNW,287,4.0,5.0,88,0.00,,---,0.00,0.00,VWS V14.01,2013-08-03 05:02:00,
2013-08-03 01:05:00,69.4,65.7,29.89,WNW,288,0.0,5.0,88,0.01,,---,0.01,0.00,VWS V14.01,2013-08-03 05:05:00,
2013-08-03 01:07:00,69.2,65.8,29.89,WNW,288,0.0,3.0,89,0.01,,---,0.01,0.00,VWS V14.01,2013-08-03 05:07:00,
2013-08-03 01:10:00,69.2,65.8,29.89,WNW,288,0.0,3.0,89,0.02,,---,0.02,0.00,VWS V14.01,2013-08-03 05:10:00,
2013-08-03 01:12:00,69.0,65.6,29.89,WNW,283,3.0,4.0,89,0.02,,---,0.02,0.00,VWS V14.01,2013-08-03 05:12:00,
2013-08-03 01:15:00,68.9,65.5,29.89,WNW,283,1.0,4.0,89,0.02,,---,0.02,0.00,VWS V14.01,2013-08-03 05:15:00,
2013-08-03 01:17:00,68.8,65.8,29.89,WNW,283,0.0,3.0,90,0.02,,---,0.02,0.00,VWS V14.01,2013-08-03 05:17:00,
2013-08-03 01:20:00,68.8,65.8,29.89,WNW,290,1.0,4.0,90,0.02,,---,0.02,0.00,VWS V14.01,2013-08-03 05:20:00,
2013-08-03 01:22:00,68.7,65.7,29.89,WNW,290,0.0,3.0,90,0.02,,---,0.02,0.00,VWS V14.01,2013-08-03 05:22:00,
2013-08-03 01:25:00,68.6,65.6,29.89,WNW,290,0.0,3.0,90,0.02,,---,0.02,0.00,VWS V14.01,2013-08-03 05:25:00,
2013-08-03 01:27:00,68.5,65.5,29.89,WNW,288,0.0,4.0,90,0.02,,---,0.02,0.00,VWS V14.01,2013-08-03 05:27:00,
2013-08-03 01:30:00,68.5,65.8,29.90,WNW,288,0.0,4.0,91,0.02,,---,0.02,0.00,VWS V14.01,2013-08-03 05:30:00,
2013-08-03 01:32:00,68.4,65.7,29.90,WNW,283,2.0,5.0,91,0.02,,---,0.02,0.00,VWS V14.01,2013-08-03 05:32:00,
2013-08-03 01:35:00,68.4,65.7,29.90,West,278,3.0,5.0,91,0.03,,---,0.03,0.00,VWS V14.01,2013-08-03 05:35:00,
2013-08-03 01:37:00,68.3,65.3,29.90,WNW,292,3.0,7.0,90,0.03,,---,0.03,0.00,VWS V14.01,2013-08-03 05:37:00,
2013-08-03 01:40:00,68.2,65.5,29.90,WNW,290,2.0,7.0,91,0.03,,---,0.03,0.00,VWS V14.01,2013-08-03 05:40:00,
2013-08-03 01:42:00,68.1,65.4,29.90,WNW,290,3.0,5.0,91,0.04,,---,0.04,0.00,VWS V14.01,2013-08-03 05:42:00,
2013-08-03 01:45:00,68.1,65.4,29.90,WNW,286,0.0,5.0,91,0.04,,---,0.04,0.00,VWS V14.01,2013-08-03 05:45:00,
2013-08-03 01:47:00,68.0,65.3,29.90,West,278,3.0,7.0,91,0.05,,---,0.05,0.00,VWS V14.01,2013-08-03 05:47:00,
2013-08-03 01:50:00,67.9,65.2,29.90,West,277,1.0,7.0,91,0.05,,---,0.05,0.00,VWS V14.01,2013-08-03 05:50:00,
2013-08-03 01:52:00,67.8,65.1,29.90,West,280,3.0,6.0,91,0.05,,---,0.05,0.00,VWS V14.01,2013-08-03 05:52:00,
2013-08-03 01:55:00,67.8,65.1,29.90,West,272,5.0,6.0,91,0.05,,---,0.05,0.00,VWS V14.01,2013-08-03 05:55:00,
2013-08-03 01:57:00,67.7,65.0,29.90,West,277,8.0,8.0,91,0.05,,---,0.05,0.00,VWS V14.01,2013-08-03 05:57:00,
2013-08-03 02:00:00,67.6,64.9,29.90,WSW,253,7.0,8.0,91,0.05,,---,0.05,0.00,VWS V14.01,2013-08-03 06:00:00,
2013-08-03 02:02:00,67.6,64.9,29.91,West,278,4.0,10.0,91,0.05,,---,0.05,0.00,VWS V14.01,2013-08-03 06:02:00,
2013-08-03 02:05:00,67.5,64.8,29.91,West,263,5.0,10.0,91,0.05,,---,0.05,0.00,VWS V14.01,2013-08-03 06:05:00,
2013-08-03 02:07:00,67.5,64.8,29.91,West,263,5.0,8.0,91,0.04,,---,0.05,0.00,VWS V14.01,2013-08-03 06:07:00,
2013-08-03 02:10:00,67.4,64.7,29.92,West,259,3.0,8.0,91,0.04,,---,0.05,0.00,VWS V14.01,2013-08-03 06:10:00,
2013-08-03 02:12:00,67.4,64.7,29.92,West,267,1.0,6.0,91,0.04,,---,0.06,0.00,VWS V14.01,2013-08-03 06:12:00,
2013-08-03 02:15:00,67.3,64.6,29.92,West,267,1.0,6.0,91,0.05,,---,0.07,0.00,VWS V14.01,2013-08-03 06:15:00,
2013-08-03 02:17:00,67.2,64.5,29.92,West,275,3.0,4.0,91,0.06,,---,0.08,0.00,VWS V14.01,2013-08-03 06:17:00,
2013-08-03 02:20:00,67.1,64.7,29.92,West,278,2.0,6.0,92,0.07,,---,0.09,0.00,VWS V14.01,2013-08-03 06:20:00,
2013-08-03 02:22:00,67.0,64.6,29.92,West,264,2.0,6.0,92,0.09,,---,0.11,0.00,VWS V14.01,2013-08-03 06:22:00,
2013-08-03 02:25:00,66.9,64.5,29.92,WNW,286,4.0,6.0,92,0.09,,---,0.11,0.00,VWS V14.01,2013-08-03 06:25:00,
2013-08-03 02:27:00,66.8,64.4,29.91,WSW,256,3.0,6.0,92,0.10,,---,0.12,0.00,VWS V14.01,2013-08-03 06:27:00,
2013-08-03 02:30:00,66.7,64.3,29.91,West,263,2.0,6.0,92,0.10,,---,0.12,0.00,VWS V14.01,2013-08-03 06:30:00,
2013-08-03 02:32:00,66.6,64.2,29.91,WSW,257,0.0,7.0,92,0.10,,---,0.12,0.00,VWS V14.01,2013-08-03 06:32:00,
2013-08-03 02:35:00,66.4,64.0,29.91,WSW,257,0.0,7.0,92,0.10,,---,0.12,0.00,VWS V14.01,2013-08-03 06:35:00,
2013-08-03 02:37:00,66.3,63.9,29.91,WSW,256,0.0,4.0,92,0.09,,---,0.12,0.00,VWS V14.01,2013-08-03 06:37:00,
2013-08-03 02:40:00,66.3,64.2,29.91,WSW,255,0.0,4.0,93,0.09,,---,0.12,0.00,VWS V14.01,2013-08-03 06:40:00,
2013-08-03 02:43:00,66.2,64.1,29.91,WSW,249,0.0,5.0,93,0.11,,---,0.14,0.00,VWS V14.01,2013-08-03 06:43:00,
2013-08-03 02:45:00,66.2,64.1,29.91,WSW,249,0.0,5.0,93,0.12,,---,0.15,0.00,VWS V14.01,2013-08-03 06:45:00,
2013-08-03 02:48:00,66.2,64.1,29.90,WSW,249,0.0,1.0,93,0.11,,---,0.15,0.00,VWS V14.01,2013-08-03 06:48:00,
2013-08-03 02:50:00,66.2,64.1,29.90,WSW,249,0.0,1.0,93,0.11,,---,0.15,0.00,VWS V14.01,2013-08-03 06:50:00,
2013-08-03 02:53:00,66.1,64.0,29.90,WSW,249,0.0,1.0,93,0.10,,---,0.15,0.00,VWS V14.01,2013-08-03 06:53:00,
2013-08-03 02:55:00,66.1,64.0,29.90,WSW,249,0.0,1.0,93,0.10,,---,0.15,0.00,VWS V14.01,2013-08-03 06:55:00,
2013-08-03 02:58:00,66.1,64.3,29.90,WSW,249,0.0,1.0,94,0.10,,---,0.15,0.00,VWS V14.01,2013-08-03 06:58:00,
2013-08-03 03:00:00,66.1,64.3,29.90,WSW,249,0.0,1.0,94,0.10,,---,0.15,0.00,VWS V14.01,2013-08-03 07:00:00,
2013-08-03 03:03:00,66.1,64.3,29.90,WSW,249,0.0,1.0,94,0.10,,---,0.15,0.00,VWS V14.01,2013-08-03 07:03:00,
2013-08-03 03:05:00,66.0,64.2,29.90,WSW,249,0.0,1.0,94,0.10,,---,0.15,0.00,VWS V14.01,2013-08-03 07:05:00,
2013-08-03 03:08:00,66.0,64.2,29.90,WSW,249,0.0,0.0,94,0.10,,---,0.15,0.00,VWS V14.01,2013-08-03 07:08:00,
2013-08-03 03:10:00,66.0,64.2,29.90,WSW,249,0.0,0.0,94,0.10,,---,0.15,0.00,VWS V14.01,2013-08-03 07:10:00,
2013-08-03 03:13:00,66.0,64.2,29.90,WSW,249,0.0,0.0,94,0.10,,---,0.15,0.00,VWS V14.01,2013-08-03 07:13:00,
2013-08-03 03:15:00,66.0,64.2,29.90,WSW,249,0.0,0.0,94,0.10,,---,0.15,0.00,VWS V14.01,2013-08-03 07:15:00,
2013-08-03 03:17:00,65.9,64.1,29.90,WSW,249,0.0,0.0,94,0.08,,---,0.15,0.00,VWS V14.01,2013-08-03 07:17:00,
2013-08-03 03:20:00,65.9,64.1,29.90,WSW,249,0.0,0.0,94,0.08,,---,0.15,0.00,VWS V14.01,2013-08-03 07:20:00,
2013-08-03 03:23:00,65.9,64.1,29.90,WSW,249,0.0,1.0,94,0.06,,---,0.15,0.00,VWS V14.01,2013-08-03 07:23:00,
2013-08-03 03:25:00,65.9,64.1,29.90,WSW,249,0.0,1.0,94,0.06,,---,0.15,0.00,VWS V14.01,2013-08-03 07:25:00,
2013-08-03 03:27:00,65.8,64.0,29.90,WSW,249,0.0,1.0,94,0.04,,---,0.15,0.00,VWS V14.01,2013-08-03 07:27:00,
2013-08-03 03:30:00,65.8,64.0,29.90,WSW,249,1.0,2.0,94,0.04,,---,0.15,0.00,VWS V14.01,2013-08-03 07:30:00,
2013-08-03 03:33:00,65.8,64.0,29.90,WSW,249,0.0,1.0,94,0.03,,---,0.15,0.00,VWS V14.01,2013-08-03 07:33:00,
2013-08-03 03:35:00,65.7,63.9,29.90,SW,227,3.0,5.0,94,0.03,,---,0.15,0.00,VWS V14.01,2013-08-03 07:35:00,
2013-08-03 03:38:00,65.6,63.8,29.90,SSW,206,4.0,6.0,94,0.03,,---,0.15,0.00,VWS V14.01,2013-08-03 07:38:00,
2013-08-03 03:40:00,65.6,63.8,29.90,SSW,202,1.0,6.0,94,0.03,,---,0.15,0.00,VWS V14.01,2013-08-03 07:40:00,
2013-08-03 03:43:00,65.4,63.6,29.90,SSW,212,3.0,5.0,94,0.03,,---,0.15,0.00,VWS V14.01,2013-08-03 07:43:00,
2013-08-03 03:45:00,65.4,63.6,29.90,SSW,212,1.0,5.0,94,0.03,,---,0.15,0.00,VWS V14.01,2013-08-03 07:45:00,
2013-08-03 03:47:00,65.3,63.5,29.90,SW,218,0.0,6.0,94,0.00,,---,0.15,0.00,VWS V14.01,2013-08-03 07:47:00,
2013-08-03 03:50:00,65.3,63.5,29.90,SW,218,1.0,6.0,94,0.00,,---,0.15,0.00,VWS V14.01,2013-08-03 07:50:00,
2013-08-03 03:52:00,65.3,63.5,29.90,SW,218,1.0,4.0,94,0.01,,---,0.16,0.00,VWS V14.01,2013-08-03 07:52:00,
2013-08-03 03:55:00,65.3,63.5,29.90,SW,218,0.0,4.0,94,0.01,,---,0.16,0.00,VWS V14.01,2013-08-03 07:55:00,
2013-08-03 03:58:00,65.2,63.4,29.90,SW,218,0.0,1.0,94,0.01,,---,0.16,0.00,VWS V14.01,2013-08-03 07:58:00,
2013-08-03 04:00:00,65.2,63.4,29.90,SW,218,0.0,1.0,94,0.02,,---,0.17,0.00,VWS V14.01,2013-08-03 08:00:00,
2013-08-03 04:03:00,65.2,63.4,29.90,SW,218,0.0,1.0,94,0.02,,---,0.17,0.00,VWS V14.01,2013-08-03 08:03:00,
2013-08-03 04:05:00,65.2,63.4,29.89,SW,218,0.0,1.0,94,0.02,,---,0.17,0.00,VWS V14.01,2013-08-03 08:05:00,
2013-08-03 04:08:00,65.1,63.3,29.89,SW,218,0.0,1.0,94,0.02,,---,0.17,0.00,VWS V14.01,2013-08-03 08:08:00,
2013-08-03 04:10:00,65.1,63.3,29.89,SW,218,0.0,1.0,94,0.03,,---,0.18,0.00,VWS V14.01,2013-08-03 08:10:00,
2013-08-03 04:13:00,65.0,63.2,29.89,SW,218,0.0,1.0,94,0.03,,---,0.18,0.00,VWS V14.01,2013-08-03 08:13:00,
2013-08-03 04:15:00,65.0,63.2,29.89,SW,218,0.0,1.0,94,0.03,,---,0.18,0.00,VWS V14.01,2013-08-03 08:15:00,
2013-08-03 04:18:00,65.0,63.2,29.89,SW,218,0.0,1.0,94,0.03,,---,0.18,0.00,VWS V14.01,2013-08-03 08:18:00,
2013-08-03 04:20:00,64.9,63.1,29.88,SW,218,0.0,1.0,94,0.03,,---,0.18,0.00,VWS V14.01,2013-08-03 08:20:00,
2013-08-03 04:23:00,64.9,63.1,29.88,SW,218,0.0,0.0,94,0.03,,---,0.18,0.00,VWS V14.01,2013-08-03 08:23:00,
2013-08-03 04:25:00,64.9,63.4,29.88,SW,218,0.0,0.0,95,0.03,,---,0.18,0.00,VWS V14.01,2013-08-03 08:25:00,
2013-08-03 04:28:00,64.9,63.4,29.88,SW,218,0.0,0.0,95,0.03,,---,0.18,0.00,VWS V14.01,2013-08-03 08:28:00,
2013-08-03 04:30:00,64.8,63.3,29.88,SW,218,0.0,1.0,95,0.03,,---,0.18,0.00,VWS V14.01,2013-08-03 08:30:00,
2013-08-03 04:33:00,64.8,63.3,29.88,SW,218,0.0,0.0,95,0.04,,---,0.19,0.00,VWS V14.01,2013-08-03 08:33:00,
2013-08-03 04:35:00,64.8,63.3,29.88,SW,218,0.0,0.0,95,0.04,,---,0.19,0.00,VWS V14.01,2013-08-03 08:35:00,
2013-08-03 04:38:00,64.8,63.3,29.88,SW,218,0.0,0.0,95,0.04,,---,0.19,0.00,VWS V14.01,2013-08-03 08:38:00,
2013-08-03 04:40:00,64.8,63.3,29.88,SW,218,0.0,0.0,95,0.04,,---,0.19,0.00,VWS V14.01,2013-08-03 08:40:00,
2013-08-03 04:43:00,64.8,63.3,29.87,SW,218,0.0,0.0,95,0.04,,---,0.19,0.00,VWS V14.01,2013-08-03 08:43:00,
2013-08-03 04:45:00,64.8,63.3,29.87,SW,218,0.0,1.0,95,0.04,,---,0.19,0.00,VWS V14.01,2013-08-03 08:45:00,
2013-08-03 04:48:00,64.7,63.2,29.87,SW,218,0.0,0.0,95,0.04,,---,0.19,0.00,VWS V14.01,2013-08-03 08:48:00,
2013-08-03 04:50:00,64.7,63.2,29.88,SW,218,0.0,0.0,95,0.04,,---,0.19,0.00,VWS V14.01,2013-08-03 08:50:00,
2013-08-03 04:53:00,64.6,63.1,29.87,SW,218,0.0,1.0,95,0.05,,---,0.20,0.00,VWS V14.01,2013-08-03 08:53:00,
2013-08-03 04:55:00,64.6,63.1,29.87,SW,218,0.0,1.0,95,0.05,,---,0.20,0.00,VWS V14.01,2013-08-03 08:55:00,
2013-08-03 04:58:00,64.5,63.0,29.87,SW,218,0.0,1.0,95,0.04,,---,0.20,0.00,VWS V14.01,2013-08-03 08:58:00,
2013-08-03 05:00:00,64.5,63.0,29.87,SW,218,0.0,1.0,95,0.04,,---,0.20,0.00,VWS V14.01,2013-08-03 09:00:00,
2013-08-03 05:03:00,64.5,63.0,29.87,SW,218,1.0,2.0,95,0.03,,---,0.20,0.00,VWS V14.01,2013-08-03 09:03:00,
2013-08-03 05:05:00,64.5,63.0,29.87,SW,218,0.0,2.0,95,0.03,,---,0.20,0.00,VWS V14.01,2013-08-03 09:05:00,
2013-08-03 05:08:00,64.4,62.9,29.87,SW,218,0.0,3.0,95,0.03,,---,0.20,0.00,VWS V14.01,2013-08-03 09:08:00,
2013-08-03 05:10:00,64.4,62.9,29.87,SW,218,0.0,3.0,95,0.03,,---,0.20,0.00,VWS V14.01,2013-08-03 09:10:00,
2013-08-03 05:13:00,64.4,62.9,29.87,SW,218,1.0,2.0,95,0.02,,---,0.20,0.00,VWS V14.01,2013-08-03 09:13:00,
2013-08-03 05:15:00,64.4,62.9,29.87,SW,218,0.0,2.0,95,0.02,,---,0.20,0.00,VWS V14.01,2013-08-03 09:15:00,
2013-08-03 05:18:00,64.3,62.8,29.87,SW,218,0.0,3.0,95,0.02,,---,0.20,0.00,VWS V14.01,2013-08-03 09:18:00,
2013-08-03 05:20:00,64.3,62.8,29.87,SW,218,0.0,3.0,95,0.02,,---,0.20,0.00,VWS V14.01,2013-08-03 09:20:00,
2013-08-03 05:23:00,64.3,62.8,29.87,SW,218,1.0,2.0,95,0.02,,---,0.20,0.00,VWS V14.01,2013-08-03 09:23:00,
2013-08-03 05:25:00,64.3,62.8,29.87,SW,218,0.0,3.0,95,0.02,,---,0.20,0.00,VWS V14.01,2013-08-03 09:25:00,
2013-08-03 05:28:00,64.3,62.8,29.87,SW,218,0.0,3.0,95,0.02,,---,0.20,0.00,VWS V14.01,2013-08-03 09:28:00,
2013-08-03 05:30:00,64.3,62.8,29.87,SW,218,0.0,3.0,95,0.02,,---,0.20,0.00,VWS V14.01,2013-08-03 09:30:00,
2013-08-03 05:33:00,64.3,62.8,29.88,SW,218,0.0,1.0,95,0.02,,---,0.20,0.00,VWS V14.01,2013-08-03 09:33:00,
2013-08-03 05:35:00,64.3,62.8,29.88,SW,218,0.0,1.0,95,0.02,,---,0.20,0.00,VWS V14.01,2013-08-03 09:35:00,
2013-08-03 05:38:00,64.3,62.8,29.88,SW,218,0.0,4.0,95,0.02,,---,0.21,0.00,VWS V14.01,2013-08-03 09:38:00,
2013-08-03 05:40:00,64.3,62.8,29.88,SW,218,0.0,4.0,95,0.02,,---,0.21,0.00,VWS V14.01,2013-08-03 09:40:00,
2013-08-03 05:43:00,64.4,62.9,29.88,SW,218,1.0,2.0,95,0.02,,---,0.21,0.00,VWS V14.01,2013-08-03 09:43:00,
2013-08-03 05:45:00,64.4,62.9,29.88,SW,218,0.0,3.0,95,0.02,,---,0.21,0.00,VWS V14.01,2013-08-03 09:45:00,
2013-08-03 05:48:00,64.4,62.9,29.88,SW,218,0.0,4.0,95,0.02,,---,0.21,0.00,VWS V14.01,2013-08-03 09:48:00,
2013-08-03 05:50:00,64.4,62.9,29.88,SW,218,0.0,4.0,95,0.02,,---,0.21,0.00,VWS V14.01,2013-08-03 09:50:00,
2013-08-03 05:53:00,64.4,62.9,29.88,SW,218,0.0,2.0,95,0.02,,---,0.21,0.00,VWS V14.01,2013-08-03 09:53:00,
2013-08-03 05:55:00,64.4,62.9,29.88,SW,218,0.0,2.0,95,0.02,,---,0.21,0.00,VWS V14.01,2013-08-03 09:55:00,
2013-08-03 05:58:00,64.4,62.9,29.88,SW,218,0.0,4.0,95,0.01,,---,0.21,0.00,VWS V14.01,2013-08-03 09:58:00,
2013-08-03 06:00:00,64.4,62.9,29.88,SW,218,1.0,4.0,95,0.01,,---,0.21,0.00,VWS V14.01,2013-08-03 10:00:00,
2013-08-03 06:03:00,64.4,62.9,29.88,SW,218,1.0,1.0,95,0.02,,---,0.22,0.00,VWS V14.01,2013-08-03 10:03:00,
2013-08-03 06:05:00,64.4,62.9,29.88,SW,218,0.0,1.0,95,0.02,,---,0.22,0.00,VWS V14.01,2013-08-03 10:05:00,
2013-08-03 06:08:00,64.4,62.9,29.88,SW,218,1.0,2.0,95,0.02,,---,0.22,0.00,VWS V14.01,2013-08-03 10:08:00,
2013-08-03 06:10:00,64.4,62.9,29.88,SW,218,0.0,2.0,95,0.02,,---,0.22,0.00,VWS V14.01,2013-08-03 10:10:00,
2013-08-03 06:13:00,64.4,62.9,29.88,SSW,200,3.0,5.0,95,0.02,,---,0.22,0.00,VWS V14.01,2013-08-03 10:13:00,
2013-08-03 06:15:00,64.4,62.9,29.88,SSW,200,2.0,5.0,95,0.02,,---,0.22,0.00,VWS V14.01,2013-08-03 10:15:00,
2013-08-03 06:18:00,64.4,62.9,29.88,SSW,200,0.0,3.0,95,0.02,,---,0.22,0.00,VWS V14.01,2013-08-03 10:18:00,
2013-08-03 06:20:00,64.4,62.9,29.88,SSW,200,0.0,3.0,95,0.02,,---,0.22,0.00,VWS V14.01,2013-08-03 10:20:00,
2013-08-03 06:23:00,64.4,62.9,29.88,SSW,200,0.0,4.0,95,0.02,,---,0.22,0.00,VWS V14.01,2013-08-03 10:23:00,
2013-08-03 06:25:00,64.4,62.9,29.88,SSW,200,0.0,4.0,95,0.03,,---,0.23,0.00,VWS V14.01,2013-08-03 10:25:00,
2013-08-03 06:28:00,64.4,62.9,29.88,SSW,200,0.0,1.0,95,0.03,,---,0.23,0.00,VWS V14.01,2013-08-03 10:28:00,
2013-08-03 06:30:00,64.4,62.9,29.88,SSW,200,0.0,3.0,95,0.03,,---,0.23,0.00,VWS V14.01,2013-08-03 10:30:00,
2013-08-03 06:33:00,64.4,62.9,29.88,SSW,200,0.0,5.0,95,0.03,,---,0.23,0.00,VWS V14.01,2013-08-03 10:33:00,
2013-08-03 06:35:00,64.4,62.9,29.88,SSW,200,0.0,5.0,95,0.03,,---,0.23,0.00,VWS V14.01,2013-08-03 10:35:00,
2013-08-03 06:38:00,64.4,62.9,29.88,SSW,200,0.0,5.0,95,0.04,,---,0.24,0.00,VWS V14.01,2013-08-03 10:38:00,
2013-08-03 06:40:00,64.5,63.0,29.88,SSW,200,0.0,5.0,95,0.04,,---,0.24,0.00,VWS V14.01,2013-08-03 10:40:00,
2013-08-03 06:43:00,64.5,63.0,29.88,SSW,200,2.0,4.0,95,0.03,,---,0.24,0.00,VWS V14.01,2013-08-03 10:43:00,
2013-08-03 06:45:00,64.5,63.0,29.88,SSW,200,3.0,4.0,95,0.03,,---,0.24,0.00,VWS V14.01,2013-08-03 10:45:00,
2013-08-03 06:48:00,64.5,63.0,29.88,SSW,200,0.0,4.0,95,0.03,,---,0.24,0.00,VWS V14.01,2013-08-03 10:48:00,
2013-08-03 06:50:00,64.5,63.0,29.88,SSW,200,0.0,4.0,95,0.03,,---,0.24,5.00,VWS V14.01,2013-08-03 10:50:00,
2013-08-03 06:53:00,64.5,63.0,29.88,SSW,200,3.0,3.0,95,0.03,,---,0.24,5.00,VWS V14.01,2013-08-03 10:53:00,
2013-08-03 06:55:00,64.5,63.0,29.88,SSW,200,0.0,3.0,95,0.03,,---,0.24,5.00,VWS V14.01,2013-08-03 10:55:00,
2013-08-03 06:58:00,64.5,63.0,29.88,SSW,199,2.0,5.0,95,0.03,,---,0.24,7.00,VWS V14.01,2013-08-03 10:58:00,
2013-08-03 07:00:00,64.5,63.0,29.88,SSW,196,1.0,5.0,95,0.03,,---,0.24,7.00,VWS V14.01,2013-08-03 11:00:00,
2013-08-03 07:03:00,64.6,63.1,29.88,South,191,2.0,5.0,95,0.03,,---,0.24,9.00,VWS V14.01,2013-08-03 11:03:00,
2013-08-03 07:05:00,64.6,63.1,29.88,South,191,2.0,5.0,95,0.03,,---,0.24,11.00,VWS V14.01,2013-08-03 11:05:00,
2013-08-03 07:08:00,64.5,63.0,29.88,South,191,0.0,4.0,95,0.02,,---,0.24,12.00,VWS V14.01,2013-08-03 11:08:00,
2013-08-03 07:10:00,64.5,63.0,29.88,South,191,0.0,4.0,95,0.02,,---,0.24,12.00,VWS V14.01,2013-08-03 11:10:00,
2013-08-03 07:14:00,64.5,63.0,29.88,South,191,2.0,4.0,95,0.02,,---,0.24,12.00,VWS V14.01,2013-08-03 11:14:00,
2013-08-03 07:15:00,64.6,63.1,29.88,South,191,0.0,4.0,95,0.02,,---,0.24,14.00,VWS V14.01,2013-08-03 11:15:00,
2013-08-03 07:19:00,64.5,63.0,29.88,South,191,0.0,3.0,95,0.02,,---,0.24,12.00,VWS V14.01,2013-08-03 11:19:00,
2013-08-03 07:20:00,64.5,63.0,29.88,South,191,0.0,3.0,95,0.02,,---,0.24,12.00,VWS V14.01,2013-08-03 11:20:00,
2013-08-03 07:23:00,64.5,63.0,29.88,South,191,0.0,4.0,95,0.02,,---,0.24,14.00,VWS V14.01,2013-08-03 11:23:00,
2013-08-03 07:25:00,64.6,63.1,29.88,South,191,4.0,4.0,95,0.02,,---,0.24,14.00,VWS V14.01,2013-08-03 11:25:00,
2013-08-03 07:28:00,64.6,63.1,29.88,South,191,0.0,4.0,95,0.01,,---,0.24,18.00,VWS V14.01,2013-08-03 11:28:00,
2013-08-03 07:30:00,64.6,63.1,29.88,South,191,0.0,4.0,95,0.01,,---,0.24,19.00,VWS V14.01,2013-08-03 11:30:00,
2013-08-03 07:34:00,64.6,63.1,29.88,South,191,0.0,3.0,95,0.01,,---,0.24,23.00,VWS V14.01,2013-08-03 11:34:00,
2013-08-03 07:35:00,64.6,63.1,29.88,South,191,1.0,3.0,95,0.01,,---,0.24,23.00,VWS V14.01,2013-08-03 11:35:00,
2013-08-03 07:39:00,64.7,63.2,29.88,South,191,0.0,1.0,95,0.01,,---,0.24,25.00,VWS V14.01,2013-08-03 11:39:00,
2013-08-03 07:40:00,64.7,63.2,29.88,South,191,2.0,3.0,95,0.01,,---,0.24,23.00,VWS V14.01,2013-08-03 11:40:00,
2013-08-03 07:43:00,64.7,63.2,29.88,South,191,2.0,2.0,95,0.00,,---,0.24,33.00,VWS V14.01,2013-08-03 11:43:00,
2013-08-03 07:45:00,64.7,63.2,29.88,South,191,2.0,2.0,95,0.00,,---,0.24,37.00,VWS V14.01,2013-08-03 11:45:00,
2013-08-03 07:49:00,64.8,63.3,29.88,South,191,0.0,3.0,95,0.00,,---,0.24,33.00,VWS V14.01,2013-08-03 11:49:00,
2013-08-03 07:50:00,64.8,63.3,29.88,South,191,0.0,4.0,95,0.00,,---,0.24,32.00,VWS V14.01,2013-08-03 11:50:00,
2013-08-03 07:54:00,64.9,63.4,29.88,South,191,0.0,3.0,95,0.00,,---,0.24,40.00,VWS V14.01,2013-08-03 11:54:00,
2013-08-03 07:55:00,64.9,63.4,29.88,South,191,0.0,3.0,95,0.00,,---,0.24,39.00,VWS V14.01,2013-08-03 11:55:00,
2013-08-03 07:59:00,64.9,63.4,29.88,South,191,0.0,1.0,95,0.00,,---,0.24,26.00,VWS V14.01,2013-08-03 11:59:00,
2013-08-03 08:00:00,64.9,63.4,29.88,South,191,0.0,2.0,95,0.00,,---,0.24,28.00,VWS V14.01,2013-08-03 12:00:00,
2013-08-03 08:04:00,65.0,63.5,29.88,South,191,0.0,2.0,95,0.00,,---,0.24,37.00,VWS V14.01,2013-08-03 12:04:00,
2013-08-03 08:05:00,65.0,63.5,29.88,South,191,1.0,2.0,95,0.00,,---,0.24,40.00,VWS V14.01,2013-08-03 12:05:00,
2013-08-03 08:09:00,65.1,63.6,29.88,South,191,1.0,3.0,95,0.00,,---,0.24,40.00,VWS V14.01,2013-08-03 12:09:00,
2013-08-03 08:10:00,65.0,63.5,29.88,South,191,0.0,3.0,95,0.00,,---,0.24,39.00,VWS V14.01,2013-08-03 12:10:00,
2013-08-03 08:14:00,65.1,63.6,29.88,South,191,0.0,4.0,95,0.00,,---,0.24,51.00,VWS V14.01,2013-08-03 12:14:00,
2013-08-03 08:15:00,65.1,63.6,29.88,South,191,0.0,4.0,95,0.00,,---,0.24,54.00,VWS V14.01,2013-08-03 12:15:00,
2013-08-03 08:19:00,65.1,63.6,29.88,South,191,3.0,3.0,95,0.00,,---,0.24,44.00,VWS V14.01,2013-08-03 12:19:00,
2013-08-03 08:20:00,65.1,63.6,29.88,South,191,0.0,3.0,95,0.00,,---,0.24,44.00,VWS V14.01,2013-08-03 12:20:00,
2013-08-03 08:24:00,65.2,63.7,29.88,South,191,2.0,4.0,95,0.01,,---,0.25,53.00,VWS V14.01,2013-08-03 12:24:00,
2013-08-03 08:25:00,65.2,63.7,29.88,South,191,3.0,4.0,95,0.01,,---,0.25,53.00,VWS V14.01,2013-08-03 12:25:00,
2013-08-03 08:29:00,65.2,63.7,29.89,South,191,0.0,3.0,95,0.03,,---,0.27,35.00,VWS V14.01,2013-08-03 12:29:00,
2013-08-03 08:30:00,65.2,63.7,29.89,South,191,0.0,3.0,95,0.03,,---,0.27,35.00,VWS V14.01,2013-08-03 12:30:00,
2013-08-03 08:34:00,65.1,63.6,29.89,South,191,1.0,3.0,95,0.06,,---,0.30,40.00,VWS V14.01,2013-08-03 12:34:00,
2013-08-03 08:35:00,65.1,63.6,29.89,South,191,0.0,3.0,95,0.06,,---,0.30,40.00,VWS V14.01,2013-08-03 12:35:00,
2013-08-03 08:39:00,65.1,63.6,29.89,South,191,1.0,3.0,95,0.06,,---,0.30,37.00,VWS V14.01,2013-08-03 12:39:00,
2013-08-03 08:40:00,65.1,63.6,29.89,South,191,0.0,3.0,95,0.06,,---,0.30,37.00,VWS V14.01,2013-08-03 12:40:00,
2013-08-03 08:44:00,65.0,63.5,29.89,South,191,0.0,1.0,95,0.06,,---,0.30,26.00,VWS V14.01,2013-08-03 12:44:00,
2013-08-03 08:45:00,65.0,63.5,29.89,South,191,0.0,1.0,95,0.06,,---,0.30,26.00,VWS V14.01,2013-08-03 12:45:00,
2013-08-03 08:49:00,65.0,63.5,29.89,South,191,0.0,1.0,95,0.06,,---,0.30,19.00,VWS V14.01,2013-08-03 12:49:00,
2013-08-03 08:50:00,65.0,63.5,29.89,South,191,0.0,1.0,95,0.06,,---,0.30,19.00,VWS V14.01,2013-08-03 12:50:00,
2013-08-03 08:54:00,65.0,63.5,29.89,South,191,0.0,1.0,95,0.07,,---,0.31,23.00,VWS V14.01,2013-08-03 12:54:00,
2013-08-03 08:55:00,65.0,63.5,29.89,South,191,0.0,1.0,95,0.07,,---,0.31,23.00,VWS V14.01,2013-08-03 12:55:00,
2013-08-03 08:59:00,65.0,63.5,29.88,South,191,0.0,0.0,95,0.07,,---,0.31,28.00,VWS V14.01,2013-08-03 12:59:00,
2013-08-03 09:00:00,65.0,63.5,29.88,South,191,0.0,0.0,95,0.07,,---,0.31,28.00,VWS V14.01,2013-08-03 13:00:00,
2013-08-03 09:04:00,65.0,63.5,29.88,South,191,0.0,2.0,95,0.07,,---,0.31,30.00,VWS V14.01,2013-08-03 13:04:00,
2013-08-03 09:05:00,65.0,63.5,29.88,South,191,1.0,2.0,95,0.07,,---,0.31,30.00,VWS V14.01,2013-08-03 13:05:00,
2013-08-03 09:09:00,65.0,63.5,29.88,South,191,3.0,4.0,95,0.07,,---,0.31,32.00,VWS V14.01,2013-08-03 13:09:00,
2013-08-03 09:10:00,65.1,63.6,29.88,South,191,2.0,4.0,95,0.07,,---,0.31,32.00,VWS V14.01,2013-08-03 13:10:00,
2013-08-03 09:14:00,65.0,63.5,29.88,South,191,0.0,4.0,95,0.08,,---,0.32,32.00,VWS V14.01,2013-08-03 13:14:00,
2013-08-03 09:15:00,65.0,63.5,29.88,South,191,0.0,4.0,95,0.08,,---,0.32,32.00,VWS V14.01,2013-08-03 13:15:00,
2013-08-03 09:19:00,65.0,63.5,29.88,South,191,0.0,3.0,95,0.08,,---,0.32,76.00,VWS V14.01,2013-08-03 13:19:00,
2013-08-03 09:20:00,65.0,63.5,29.88,South,191,3.0,3.0,95,0.08,,---,0.32,81.00,VWS V14.01,2013-08-03 13:20:00,
2013-08-03 09:24:00,65.1,63.6,29.88,South,191,0.0,4.0,95,0.08,,---,0.32,51.00,VWS V14.01,2013-08-03 13:24:00,
2013-08-03 09:25:00,65.0,63.5,29.88,South,191,3.0,4.0,95,0.08,,---,0.32,47.00,VWS V14.01,2013-08-03 13:25:00,
2013-08-03 09:29:00,65.1,63.9,29.88,SSW,192,0.0,4.0,96,0.07,,---,0.32,39.00,VWS V14.01,2013-08-03 13:29:00,
2013-08-03 09:30:00,65.1,63.9,29.88,SSW,192,0.0,4.0,96,0.07,,---,0.32,39.00,VWS V14.01,2013-08-03 13:30:00,
2013-08-03 09:34:00,65.1,63.9,29.88,SSW,192,0.0,1.0,96,0.05,,---,0.32,37.00,VWS V14.01,2013-08-03 13:34:00,
2013-08-03 09:35:00,65.1,63.9,29.88,SSW,192,0.0,1.0,96,0.05,,---,0.32,37.00,VWS V14.01,2013-08-03 13:35:00,
2013-08-03 09:39:00,65.1,63.9,29.89,SSW,192,0.0,1.0,96,0.02,,---,0.32,25.00,VWS V14.01,2013-08-03 13:39:00,
2013-08-03 09:40:00,65.1,63.9,29.89,SSW,192,0.0,1.0,96,0.02,,---,0.32,25.00,VWS V14.01,2013-08-03 13:40:00,
2013-08-03 09:44:00,65.1,63.9,29.89,SSW,192,0.0,1.0,96,0.02,,---,0.32,35.00,VWS V14.01,2013-08-03 13:44:00,
2013-08-03 09:45:00,65.1,63.9,29.89,SSW,192,0.0,1.0,96,0.02,,---,0.32,35.00,VWS V14.01,2013-08-03 13:45:00,
2013-08-03 09:49:00,65.2,64.0,29.89,SSW,192,0.0,1.0,96,0.02,,---,0.32,30.00,VWS V14.01,2013-08-03 13:49:00,
2013-08-03 09:50:00,65.2,64.0,29.89,SSW,192,0.0,1.0,96,0.02,,---,0.32,30.00,VWS V14.01,2013-08-03 13:50:00,
2013-08-03 09:54:00,65.2,64.0,29.88,SSW,192,0.0,0.0,96,0.02,,---,0.32,79.00,VWS V14.01,2013-08-03 13:54:00,
2013-08-03 09:55:00,65.2,64.0,29.88,SSW,192,0.0,0.0,96,0.02,,---,0.32,104.00,VWS V14.01,2013-08-03 13:55:00,
2013-08-03 09:59:00,65.3,64.1,29.88,SSW,192,0.0,0.0,96,0.02,,---,0.33,88.00,VWS V14.01,2013-08-03 13:59:00,
2013-08-03 10:00:00,65.3,64.1,29.88,SSW,192,0.0,0.0,96,0.02,,---,0.33,88.00,VWS V14.01,2013-08-03 14:00:00,
2013-08-03 10:04:00,65.4,64.2,29.89,SSW,192,0.0,2.0,96,0.02,,---,0.33,97.00,VWS V14.01,2013-08-03 14:04:00,
2013-08-03 10:05:00,65.4,64.2,29.89,SSW,192,0.0,2.0,96,0.02,,---,0.33,97.00,VWS V14.01,2013-08-03 14:05:00,
2013-08-03 10:09:00,65.6,64.4,29.88,SSW,192,0.0,1.0,96,0.02,,---,0.33,139.00,VWS V14.01,2013-08-03 14:09:00,
2013-08-03 10:10:00,65.6,64.4,29.88,SSW,192,0.0,1.0,96,0.02,,---,0.33,139.00,VWS V14.01,2013-08-03 14:10:00,
2013-08-03 10:14:00,65.8,64.6,29.88,SSW,192,0.0,1.0,96,0.02,,---,0.33,128.00,VWS V14.01,2013-08-03 14:14:00,
2013-08-03 10:15:00,65.8,64.6,29.88,SSW,192,0.0,1.0,96,0.02,,---,0.33,128.00,VWS V14.01,2013-08-03 14:15:00,
2013-08-03 10:19:00,65.9,64.7,29.88,SSW,192,2.0,2.0,96,0.01,,---,0.33,114.00,VWS V14.01,2013-08-03 14:19:00,
2013-08-03 10:20:00,65.9,64.7,29.88,SSW,192,2.0,2.0,96,0.01,,---,0.33,114.00,VWS V14.01,2013-08-03 14:20:00,
2013-08-03 10:24:00,66.0,64.8,29.88,SSW,192,1.0,1.0,96,0.01,,---,0.33,65.00,VWS V14.01,2013-08-03 14:24:00,
2013-08-03 10:25:00,66.0,64.8,29.88,SSW,192,0.0,2.0,96,0.01,,---,0.33,65.00,VWS V14.01,2013-08-03 14:25:00,
2013-08-03 10:29:00,66.1,64.9,29.88,SSW,192,0.0,3.0,96,0.01,,---,0.33,93.00,VWS V14.01,2013-08-03 14:29:00,
2013-08-03 10:30:00,66.1,64.9,29.88,SSW,192,0.0,3.0,96,0.01,,---,0.33,93.00,VWS V14.01,2013-08-03 14:30:00,
2013-08-03 10:34:00,66.1,64.9,29.88,SSW,192,0.0,1.0,96,0.01,,---,0.33,98.00,VWS V14.01,2013-08-03 14:34:00,
2013-08-03 10:35:00,66.1,64.9,29.88,SSW,192,0.0,1.0,96,0.01,,---,0.33,98.00,VWS V14.01,2013-08-03 14:35:00,
2013-08-03 10:40:00,66.3,65.1,29.88,SSW,192,1.0,1.0,96,0.01,,---,0.33,114.00,VWS V14.01,2013-08-03 14:40:00,
2013-08-03 10:44:00,66.3,65.1,29.88,SSW,192,0.0,0.0,96,0.01,,---,0.33,192.00,VWS V14.01,2013-08-03 14:44:00,
2013-08-03 10:45:00,66.3,65.1,29.88,SSW,192,0.0,3.0,96,0.01,,---,0.33,192.00,VWS V14.01,2013-08-03 14:45:00,
2013-08-03 10:50:00,66.5,65.6,29.89,SW,231,4.0,4.0,97,0.01,,---,0.33,137.00,VWS V14.01,2013-08-03 14:50:00,
2013-08-03 10:55:00,66.5,65.6,29.89,WSW,244,1.0,1.0,97,0.01,,---,0.33,77.00,VWS V14.01,2013-08-03 14:55:00,
2013-08-03 11:00:00,66.6,65.7,29.89,WSW,244,0.0,0.0,97,0.00,,---,0.33,62.00,VWS V14.01,2013-08-03 15:00:00,
2013-08-03 11:05:00,66.7,65.8,29.89,WSW,244,0.0,0.0,97,0.00,,---,0.33,58.00,VWS V14.01,2013-08-03 15:05:00,
2013-08-03 11:10:00,66.8,65.6,29.89,WSW,244,2.0,3.0,96,0.00,,---,0.33,67.00,VWS V14.01,2013-08-03 15:10:00,
2013-08-03 11:15:00,66.8,65.6,29.89,WSW,244,0.0,0.0,96,0.00,,---,0.33,51.00,VWS V14.01,2013-08-03 15:15:00,
2013-08-03 11:20:00,66.8,65.9,29.89,WSW,244,0.0,0.0,97,0.00,,---,0.33,58.00,VWS V14.01,2013-08-03 15:20:00,
2013-08-03 11:25:00,66.9,66.0,29.90,WSW,244,0.0,1.0,97,0.00,,---,0.33,58.00,VWS V14.01,2013-08-03 15:25:00,
2013-08-03 11:30:00,67.0,66.1,29.90,WSW,244,0.0,0.0,97,0.00,,---,0.33,49.00,VWS V14.01,2013-08-03 15:30:00,
2013-08-03 11:35:00,67.0,66.1,29.90,West,261,2.0,3.0,97,0.00,,---,0.33,63.00,VWS V14.01,2013-08-03 15:35:00,
2013-08-03 11:40:00,67.0,65.8,29.90,West,265,1.0,1.0,96,0.00,,---,0.33,77.00,VWS V14.01,2013-08-03 15:40:00,
2013-08-03 11:45:00,66.9,65.7,29.90,West,273,0.0,0.0,96,0.00,,---,0.33,81.00,VWS V14.01,2013-08-03 15:45:00,
2013-08-03 11:50:00,66.8,65.6,29.90,NNE,30,2.0,3.0,96,0.00,,---,0.33,90.00,VWS V14.01,2013-08-03 15:50:00,
2013-08-03 11:55:00,66.6,65.4,29.90,NNE,32,0.0,0.0,96,0.00,,---,0.33,51.00,VWS V14.01,2013-08-03 15:55:00,
2013-08-03 12:00:00,66.5,65.6,29.90,NNE,32,0.0,0.0,97,0.02,,---,0.35,72.00,VWS V14.01,2013-08-03 16:00:00,
2013-08-03 12:05:00,66.5,65.6,29.90,NNE,33,0.0,1.0,97,0.03,,---,0.36,91.00,VWS V14.01,2013-08-03 16:05:00,
2013-08-03 12:10:00,66.4,65.5,29.90,NNE,33,0.0,0.0,97,0.03,,---,0.36,121.00,VWS V14.01,2013-08-03 16:10:00,
2013-08-03 12:15:00,66.4,65.5,29.90,NNE,33,0.0,0.0,97,0.03,,---,0.36,171.00,VWS V14.01,2013-08-03 16:15:00,
2013-08-03 12:20:00,66.5,65.6,29.90,NNE,33,0.0,0.0,97,0.03,,---,0.36,264.00,VWS V14.01,2013-08-03 16:20:00,
2013-08-03 12:25:00,66.7,65.8,29.90,NNE,33,0.0,1.0,97,0.03,,---,0.36,443.00,VWS V14.01,2013-08-03 16:25:00,
2013-08-03 12:30:00,67.2,66.3,29.90,NNE,33,0.0,1.0,97,0.03,,---,0.36,410.00,VWS V14.01,2013-08-03 16:30:00,
2013-08-03 12:35:00,67.7,66.8,29.90,NE,42,0.0,3.0,97,0.03,,---,0.36,559.00,VWS V14.01,2013-08-03 16:35:00,
2013-08-03 12:40:00,68.0,67.1,29.90,NE,43,0.0,1.0,97,0.03,,---,0.36,577.00,VWS V14.01,2013-08-03 16:40:00,
2013-08-03 12:45:00,68.1,67.2,29.90,NE,43,0.0,1.0,97,0.03,,---,0.36,517.00,VWS V14.01,2013-08-03 16:45:00,
2013-08-03 12:50:00,68.3,67.4,29.90,NE,53,0.0,2.0,97,0.03,,---,0.36,415.00,VWS V14.01,2013-08-03 16:50:00,
2013-08-03 12:55:00,68.5,67.6,29.90,NE,55,0.0,2.0,97,0.03,,---,0.36,520.00,VWS V14.01,2013-08-03 16:55:00,
2013-08-03 13:00:00,68.8,67.9,29.90,NE,55,2.0,2.0,97,0.01,,---,0.36,450.00,VWS V14.01,2013-08-03 17:00:00,
2013-08-03 13:05:00,69.3,68.1,29.90,NE,56,1.0,2.0,96,0.01,,---,0.36,735.00,VWS V14.01,2013-08-03 17:05:00,
2013-08-03 13:10:00,69.6,68.4,29.90,NE,56,0.0,2.0,96,0.00,,---,0.36,519.00,VWS V14.01,2013-08-03 17:10:00,
2013-08-03 13:15:00,69.9,68.1,29.89,ENE,63,0.0,1.0,94,0.00,,---,0.36,728.00,VWS V14.01,2013-08-03 17:15:00,
2013-08-03 13:20:00,70.4,68.6,29.90,ENE,63,0.0,0.0,94,0.00,,---,0.36,768.00,VWS V14.01,2013-08-03 17:20:00,
2013-08-03 13:25:00,71.1,69.0,29.90,ENE,63,0.0,1.0,93,0.00,,---,0.36,497.00,VWS V14.01,2013-08-03 17:25:00,
2013-08-03 13:30:00,71.7,69.3,29.89,ENE,63,0.0,0.0,92,0.00,,---,0.36,390.00,VWS V14.01,2013-08-03 17:30:00,
2013-08-03 13:35:00,72.1,69.0,29.89,ENE,68,0.0,2.0,90,0.00,,---,0.36,1046.00,VWS V14.01,2013-08-03 17:35:00,
2013-08-03 13:40:00,72.5,68.8,29.89,ENE,68,0.0,2.0,88,0.00,,---,0.36,1178.00,VWS V14.01,2013-08-03 17:40:00,
2013-08-03 13:45:00,72.7,68.6,29.89,ENE,68,1.0,2.0,87,0.00,,---,0.36,441.00,VWS V14.01,2013-08-03 17:45:00,
2013-08-03 13:46:00,72.7,68.3,29.89,ENE,68,0.0,1.0,86,0.00,,---,0.36,439.00,VWS V14.01,2013-08-03 17:46:00,
2013-08-03 13:50:00,72.8,68.4,29.89,ENE,68,0.0,2.0,86,0.00,,---,0.36,394.00,VWS V14.01,2013-08-03 17:50:00,
2013-08-03 13:51:00,72.8,68.4,29.89,ENE,68,0.0,0.0,86,0.00,,---,0.36,397.00,VWS V14.01,2013-08-03 17:51:00,
2013-08-03 13:55:00,73.0,68.6,29.89,ENE,68,0.0,2.0,86,0.00,,---,0.36,308.00,VWS V14.01,2013-08-03 17:55:00,
2013-08-03 13:56:00,73.1,68.7,29.89,ENE,68,0.0,0.0,86,0.00,,---,0.36,287.00,VWS V14.01,2013-08-03 17:56:00,
2013-08-03 14:00:00,73.2,68.4,29.89,ENE,68,0.0,2.0,85,0.00,,---,0.36,258.00,VWS V14.01,2013-08-03 18:00:00,
2013-08-03 14:01:00,73.3,68.5,29.90,ENE,68,1.0,1.0,85,0.00,,---,0.36,278.00,VWS V14.01,2013-08-03 18:01:00,
2013-08-03 14:05:00,73.4,68.3,29.90,ENE,68,0.0,1.0,84,0.00,,---,0.36,295.00,VWS V14.01,2013-08-03 18:05:00,
2013-08-03 14:06:00,73.5,68.4,29.90,ENE,68,0.0,0.0,84,0.00,,---,0.36,306.00,VWS V14.01,2013-08-03 18:06:00,
2013-08-03 14:10:00,73.7,68.2,29.90,ENE,68,0.0,2.0,83,0.00,,---,0.36,269.00,VWS V14.01,2013-08-03 18:10:00,
2013-08-03 14:11:00,73.7,68.6,29.90,ENE,68,0.0,1.0,84,0.00,,---,0.36,274.00,VWS V14.01,2013-08-03 18:11:00,
2013-08-03 14:15:00,73.7,67.9,29.89,ENE,68,0.0,2.0,82,0.00,,---,0.36,234.00,VWS V14.01,2013-08-03 18:15:00,
2013-08-03 14:16:00,73.7,67.9,29.89,ENE,68,0.0,0.0,82,0.00,,---,0.36,234.00,VWS V14.01,2013-08-03 18:16:00,
2013-08-03 14:20:00,73.8,68.0,29.89,ENE,68,1.0,2.0,82,0.00,,---,0.36,462.00,VWS V14.01,2013-08-03 18:20:00,
2013-08-03 14:21:00,73.8,68.0,29.89,ENE,68,0.0,1.0,82,0.00,,---,0.36,997.00,VWS V14.01,2013-08-03 18:21:00,
2013-08-03 14:25:00,73.9,67.3,29.89,ENE,69,2.0,3.0,80,0.00,,---,0.36,947.00,VWS V14.01,2013-08-03 18:25:00,
2013-08-03 14:26:00,73.9,67.7,29.89,ENE,67,1.0,2.0,81,0.00,,---,0.36,916.00,VWS V14.01,2013-08-03 18:26:00,
2013-08-03 14:30:00,74.2,67.6,29.89,ENE,69,1.0,4.0,80,0.00,,---,0.36,942.00,VWS V14.01,2013-08-03 18:30:00,
2013-08-03 14:31:00,74.3,67.7,29.89,ENE,69,0.0,2.0,80,0.00,,---,0.36,930.00,VWS V14.01,2013-08-03 18:31:00,
2013-08-03 14:35:00,74.6,67.7,29.89,NE,34,1.0,5.0,79,0.00,,---,0.36,900.00,VWS V14.01,2013-08-03 18:35:00,
2013-08-03 14:36:00,74.7,67.8,29.89,NE,34,0.0,2.0,79,0.00,,---,0.36,898.00,VWS V14.01,2013-08-03 18:36:00,
2013-08-03 14:40:00,75.1,68.2,29.88,North,360,5.0,5.0,79,0.00,,---,0.36,893.00,VWS V14.01,2013-08-03 18:40:00,
2013-08-03 14:41:00,75.3,68.3,29.88,North,360,2.0,5.0,79,0.00,,---,0.36,891.00,VWS V14.01,2013-08-03 18:41:00,
2013-08-03 14:45:00,75.7,68.0,29.88,North,355,4.0,5.0,77,0.00,,---,0.36,882.00,VWS V14.01,2013-08-03 18:45:00,
2013-08-03 14:46:00,75.8,68.1,29.89,North,355,3.0,4.0,77,0.00,,---,0.36,882.00,VWS V14.01,2013-08-03 18:46:00,
2013-08-03 14:50:00,76.2,68.1,29.88,NNW,348,0.0,4.0,76,0.00,,---,0.36,882.00,VWS V14.01,2013-08-03 18:50:00,
2013-08-03 14:51:00,76.4,68.3,29.88,NNW,348,2.0,2.0,76,0.00,,---,0.36,884.00,VWS V14.01,2013-08-03 18:51:00,
2013-08-03 14:55:00,76.8,68.3,29.88,NNW,348,1.0,4.0,75,0.00,,---,0.36,884.00,VWS V14.01,2013-08-03 18:55:00,
2013-08-03 14:56:00,76.9,68.0,29.88,NNW,348,2.0,2.0,74,0.00,,---,0.36,884.00,VWS V14.01,2013-08-03 18:56:00,
2013-08-03 15:00:00,77.3,68.8,29.88,NNW,338,1.0,4.0,75,0.00,,---,0.36,884.00,VWS V14.01,2013-08-03 19:00:00,
2013-08-03 15:01:00,77.5,69.0,29.88,NNW,332,2.0,4.0,75,0.00,,---,0.36,886.00,VWS V14.01,2013-08-03 19:01:00,
2013-08-03 15:05:00,77.7,67.6,29.88,NW,326,2.0,4.0,71,0.00,,---,0.36,918.00,VWS V14.01,2013-08-03 19:05:00,
2013-08-03 15:06:00,77.8,68.9,29.88,NW,325,3.0,3.0,74,0.00,,---,0.36,942.00,VWS V14.01,2013-08-03 19:06:00,
2013-08-03 15:10:00,78.2,68.4,29.87,NW,324,1.0,3.0,72,0.00,,---,0.36,327.00,VWS V14.01,2013-08-03 19:10:00,
2013-08-03 15:11:00,78.3,68.5,29.88,NW,324,1.0,3.0,72,0.00,,---,0.36,327.00,VWS V14.01,2013-08-03 19:11:00,
2013-08-03 15:15:00,78.4,68.2,29.88,NW,323,0.0,4.0,71,0.00,,---,0.36,534.00,VWS V14.01,2013-08-03 19:15:00,
2013-08-03 15:16:00,78.4,67.8,29.87,NW,323,1.0,2.0,70,0.00,,---,0.36,840.00,VWS V14.01,2013-08-03 19:16:00,
2013-08-03 15:20:00,78.6,68.4,29.87,NW,323,0.0,2.0,71,0.00,,---,0.36,1021.00,VWS V14.01,2013-08-03 19:20:00,
2013-08-03 15:21:00,78.7,69.3,29.87,NW,323,2.0,2.0,73,0.00,,---,0.36,1021.00,VWS V14.01,2013-08-03 19:21:00,
2013-08-03 15:25:00,79.0,69.6,29.87,WNW,287,4.0,7.0,73,0.00,,---,0.36,983.00,VWS V14.01,2013-08-03 19:25:00,
2013-08-03 15:26:00,79.1,68.9,29.87,West,271,4.0,7.0,71,0.00,,---,0.36,983.00,VWS V14.01,2013-08-03 19:26:00,
2013-08-03 15:30:00,79.1,68.1,29.86,WNW,284,1.0,7.0,69,0.00,,---,0.36,983.00,VWS V14.01,2013-08-03 19:30:00,
2013-08-03 15:31:00,79.1,67.6,29.87,WNW,288,0.0,3.0,68,0.00,,---,0.36,1072.00,VWS V14.01,2013-08-03 19:31:00,
2013-08-03 15:35:00,79.3,68.3,29.86,WNW,283,3.0,4.0,69,0.00,,---,0.36,1072.00,VWS V14.01,2013-08-03 19:35:00,
2013-08-03 15:36:00,79.3,68.3,29.86,WNW,283,1.0,3.0,69,0.00,,---,0.36,1072.00,VWS V14.01,2013-08-03 19:36:00,
2013-08-03 15:40:00,79.2,67.7,29.86,West,279,0.0,5.0,68,0.00,,---,0.36,362.00,VWS V14.01,2013-08-03 19:40:00,
2013-08-03 15:41:00,79.2,68.6,29.86,West,279,0.0,1.0,70,0.00,,---,0.36,408.00,VWS V14.01,2013-08-03 19:41:00,
2013-08-03 15:45:00,79.2,68.2,29.86,WNW,301,0.0,4.0,69,0.00,,---,0.36,475.00,VWS V14.01,2013-08-03 19:45:00,
2013-08-03 15:46:00,79.2,68.6,29.86,WNW,301,0.0,3.0,70,0.00,,---,0.36,399.00,VWS V14.01,2013-08-03 19:46:00,
2013-08-03 15:50:00,79.3,68.3,29.86,WNW,294,3.0,5.0,69,0.00,,---,0.36,1025.00,VWS V14.01,2013-08-03 19:50:00,
2013-08-03 15:51:00,79.3,68.3,29.86,WNW,294,1.0,3.0,69,0.00,,---,0.36,1034.00,VWS V14.01,2013-08-03 19:51:00,
2013-08-03 15:55:00,79.4,67.9,29.86,WNW,294,2.0,3.0,68,0.00,,---,0.36,406.00,VWS V14.01,2013-08-03 19:55:00,
2013-08-03 15:56:00,79.4,67.1,29.86,WNW,294,0.0,2.0,66,0.00,,---,0.36,234.00,VWS V14.01,2013-08-03 19:56:00,
2013-08-03 16:00:00,79.4,67.9,29.86,WNW,294,0.0,2.0,68,0.00,,---,0.36,176.00,VWS V14.01,2013-08-03 20:00:00,
2013-08-03 16:01:00,79.3,67.8,29.86,NNW,330,2.0,6.0,68,0.00,,---,0.36,169.00,VWS V14.01,2013-08-03 20:01:00,
2013-08-03 16:05:00,79.1,68.1,29.86,NNW,340,4.0,7.0,69,0.00,,---,0.36,223.00,VWS V14.01,2013-08-03 20:05:00,
2013-08-03 16:06:00,78.9,68.7,29.86,NNW,340,0.0,4.0,71,0.00,,---,0.36,364.00,VWS V14.01,2013-08-03 20:06:00,
2013-08-03 16:10:00,78.7,68.5,29.86,NNW,340,2.0,4.0,71,0.00,,---,0.36,320.00,VWS V14.01,2013-08-03 20:10:00,
2013-08-03 16:12:00,78.6,68.0,29.86,NNW,340,1.0,2.0,70,0.00,,---,0.36,309.00,VWS V14.01,2013-08-03 20:12:00,
2013-08-03 16:15:00,78.4,67.8,29.87,NNW,342,1.0,6.0,70,0.00,,---,0.36,176.00,VWS V14.01,2013-08-03 20:15:00,
2013-08-03 16:17:00,78.2,68.0,29.87,North,355,4.0,4.0,71,0.00,,---,0.36,135.00,VWS V14.01,2013-08-03 20:17:00,
2013-08-03 16:20:00,77.9,67.3,29.87,North,355,0.0,4.0,70,0.00,,---,0.36,128.00,VWS V14.01,2013-08-03 20:20:00,
2013-08-03 16:22:00,77.8,67.2,29.87,North,355,0.0,2.0,70,0.00,,---,0.36,167.00,VWS V14.01,2013-08-03 20:22:00,
2013-08-03 16:25:00,77.6,67.1,29.87,North,355,1.0,2.0,70,0.00,,---,0.36,176.00,VWS V14.01,2013-08-03 20:25:00,
2013-08-03 16:27:00,77.6,67.1,29.87,North,355,1.0,3.0,70,0.00,,---,0.36,202.00,VWS V14.01,2013-08-03 20:27:00,
2013-08-03 16:30:00,77.4,66.4,29.87,North,355,0.0,3.0,69,0.00,,---,0.36,211.00,VWS V14.01,2013-08-03 20:30:00,
2013-08-03 16:32:00,77.3,66.3,29.87,North,355,2.0,4.0,69,0.00,,---,0.36,251.00,VWS V14.01,2013-08-03 20:32:00,
2013-08-03 16:35:00,77.2,67.5,29.87,North,355,0.0,4.0,72,0.00,,---,0.36,285.00,VWS V14.01,2013-08-03 20:35:00,
2013-08-03 16:37:00,77.2,67.1,29.87,North,355,0.0,1.0,71,0.00,,---,0.36,311.00,VWS V14.01,2013-08-03 20:37:00,
2013-08-03 16:40:00,77.2,67.5,29.87,North,355,0.0,1.0,72,0.00,,---,0.36,385.00,VWS V14.01,2013-08-03 20:40:00,
2013-08-03 16:42:00,77.3,67.6,29.87,North,355,0.0,4.0,72,0.00,,---,0.36,788.00,VWS V14.01,2013-08-03 20:42:00,
2013-08-03 16:45:00,77.4,67.3,29.87,North,355,2.0,4.0,71,0.00,,---,0.36,930.00,VWS V14.01,2013-08-03 20:45:00,
2013-08-03 16:47:00,77.7,67.1,29.87,NNE,22,3.0,6.0,70,0.00,,---,0.36,918.00,VWS V14.01,2013-08-03 20:47:00,
2013-08-03 16:50:00,78.1,67.5,29.87,North,5,0.0,6.0,70,0.00,,---,0.36,918.00,VWS V14.01,2013-08-03 20:50:00,
2013-08-03 16:52:00,78.2,66.4,29.87,North,5,2.0,3.0,67,0.00,,---,0.36,304.00,VWS V14.01,2013-08-03 20:52:00,
2013-08-03 16:55:00,78.4,66.6,29.87,North,5,2.0,3.0,67,0.00,,---,0.36,250.00,VWS V14.01,2013-08-03 20:55:00,
2013-08-03 16:57:00,78.4,67.0,29.87,North,5,2.0,3.0,68,0.00,,---,0.36,264.00,VWS V14.01,2013-08-03 20:57:00,
2013-08-03 17:02:00,78.4,67.0,29.87,North,5,2.0,2.0,68,0.00,,---,0.36,257.00,VWS V14.01,2013-08-03 21:02:00,
2013-08-03 17:05:00,78.2,65.9,29.87,North,5,0.0,2.0,66,0.00,,---,0.36,285.00,VWS V14.01,2013-08-03 21:05:00,
2013-08-03 17:07:00,78.2,66.4,29.87,North,5,1.0,2.0,67,0.00,,---,0.36,260.00,VWS V14.01,2013-08-03 21:07:00,
2013-08-03 17:10:00,78.2,66.4,29.88,North,5,1.0,2.0,67,0.00,,---,0.36,292.00,VWS V14.01,2013-08-03 21:10:00,
2013-08-03 17:12:00,78.2,66.8,29.88,North,5,1.0,1.0,68,0.00,,---,0.36,311.00,VWS V14.01,2013-08-03 21:12:00,
2013-08-03 17:15:00,78.2,66.8,29.88,WNW,283,4.0,5.0,68,0.00,,---,0.36,246.00,VWS V14.01,2013-08-03 21:15:00,
2013-08-03 17:17:00,78.1,66.3,29.88,WNW,288,1.0,5.0,67,0.00,,---,0.36,232.00,VWS V14.01,2013-08-03 21:17:00,
2013-08-03 17:20:00,78.0,66.6,29.88,WNW,293,1.0,5.0,68,0.00,,---,0.36,264.00,VWS V14.01,2013-08-03 21:20:00,
2013-08-03 17:22:00,78.1,66.7,29.88,NW,317,4.0,4.0,68,0.00,,---,0.36,396.00,VWS V14.01,2013-08-03 21:22:00,
2013-08-03 17:25:00,78.2,65.9,29.88,NNW,340,4.0,8.0,66,0.00,,---,0.36,728.00,VWS V14.01,2013-08-03 21:25:00,
2013-08-03 17:27:00,78.4,65.7,29.88,NNW,342,3.0,7.0,65,0.00,,---,0.36,807.00,VWS V14.01,2013-08-03 21:27:00,
2013-08-03 17:30:00,78.5,65.3,29.88,NNW,340,0.0,7.0,64,0.00,,---,0.36,807.00,VWS V14.01,2013-08-03 21:30:00,
2013-08-03 17:32:00,78.6,65.4,29.88,NNW,346,1.0,5.0,64,0.00,,---,0.36,807.00,VWS V14.01,2013-08-03 21:32:00,
2013-08-03 17:35:00,78.7,66.0,29.88,NNW,346,1.0,5.0,65,0.00,,---,0.36,422.00,VWS V14.01,2013-08-03 21:35:00,
2013-08-03 17:37:00,78.7,66.0,29.88,NNW,346,0.0,2.0,65,0.00,,---,0.36,422.00,VWS V14.01,2013-08-03 21:37:00,
2013-08-03 17:40:00,78.9,66.2,29.88,NNW,346,0.0,2.0,65,0.00,,---,0.36,659.00,VWS V14.01,2013-08-03 21:40:00,
2013-08-03 17:42:00,79.1,65.9,29.88,NNW,346,1.0,4.0,64,0.00,,---,0.36,684.00,VWS V14.01,2013-08-03 21:42:00,
2013-08-03 17:45:00,79.3,66.1,29.88,NNW,342,4.0,5.0,64,0.00,,---,0.36,693.00,VWS V14.01,2013-08-03 21:45:00,
2013-08-03 17:47:00,79.6,66.4,29.87,NNW,341,2.0,5.0,64,0.00,,---,0.36,680.00,VWS V14.01,2013-08-03 21:47:00,
2013-08-03 17:50:00,79.9,66.2,29.87,NNE,17,2.0,10.0,63,0.00,,---,0.36,659.00,VWS V14.01,2013-08-03 21:50:00,
2013-08-03 17:52:00,80.0,66.3,29.88,NNW,336,3.0,8.0,63,0.00,,---,0.36,628.00,VWS V14.01,2013-08-03 21:52:00,
2013-08-03 17:55:00,80.1,65.9,29.87,NNW,327,3.0,8.0,62,0.00,,---,0.36,568.00,VWS V14.01,2013-08-03 21:55:00,
2013-08-03 17:57:00,80.1,66.4,29.88,NE,34,4.0,9.0,63,0.00,,---,0.36,561.00,VWS V14.01,2013-08-03 21:57:00,
2013-08-03 18:00:00,80.0,65.8,29.87,NNE,25,0.0,9.0,62,0.00,,---,0.36,561.00,VWS V14.01,2013-08-03 22:00:00,
2013-08-03 18:02:00,79.9,65.7,29.87,North,355,4.0,5.0,62,0.00,,---,0.36,552.00,VWS V14.01,2013-08-03 22:02:00,
2013-08-03 18:05:00,80.0,66.7,29.87,North,360,3.0,5.0,64,0.00,,---,0.36,496.00,VWS V14.01,2013-08-03 22:05:00,
2013-08-03 18:07:00,79.9,66.2,29.87,NNE,13,3.0,6.0,63,0.00,,---,0.36,533.00,VWS V14.01,2013-08-03 22:07:00,
2013-08-03 18:10:00,79.9,65.7,29.87,North,350,2.0,9.0,62,0.00,,---,0.36,536.00,VWS V14.01,2013-08-03 22:10:00,
2013-08-03 18:12:00,79.8,65.6,29.87,NNW,338,3.0,6.0,62,0.00,,---,0.36,504.00,VWS V14.01,2013-08-03 22:12:00,
2013-08-03 18:15:00,79.8,66.1,29.87,NNW,342,3.0,6.0,63,0.00,,---,0.36,476.00,VWS V14.01,2013-08-03 22:15:00,
2013-08-03 18:17:00,79.9,67.5,29.87,NNW,343,7.0,7.0,66,0.00,,---,0.36,468.00,VWS V14.01,2013-08-03 22:17:00,
2013-08-03 18:20:00,79.8,65.6,29.87,NNW,344,4.0,8.0,62,0.00,,---,0.36,88.00,VWS V14.01,2013-08-03 22:20:00,
2013-08-03 18:22:00,79.6,65.0,29.87,North,350,3.0,6.0,61,0.00,,---,0.36,105.00,VWS V14.01,2013-08-03 22:22:00,
2013-08-03 18:25:00,79.1,64.5,29.87,North,349,3.0,6.0,61,0.00,,---,0.36,102.00,VWS V14.01,2013-08-03 22:25:00,
2013-08-03 18:27:00,78.7,65.1,29.87,North,349,2.0,3.0,63,0.00,,---,0.36,396.00,VWS V14.01,2013-08-03 22:27:00,
2013-08-03 18:30:00,78.4,64.8,29.87,North,349,1.0,4.0,63,0.00,,---,0.36,392.00,VWS V14.01,2013-08-03 22:30:00,
2013-08-03 18:32:00,78.3,64.7,29.87,NNW,348,0.0,3.0,63,0.00,,---,0.36,392.00,VWS V14.01,2013-08-03 22:32:00,
2013-08-03 18:35:00,78.3,65.1,29.87,NNW,347,2.0,3.0,64,0.00,,---,0.36,364.00,VWS V14.01,2013-08-03 22:35:00,
2013-08-03 18:37:00,78.3,64.7,29.88,NNW,338,1.0,7.0,63,0.00,,---,0.36,352.00,VWS V14.01,2013-08-03 22:37:00,
2013-08-03 18:40:00,78.3,65.1,29.88,North,355,0.0,7.0,64,0.00,,---,0.36,350.00,VWS V14.01,2013-08-03 22:40:00,
2013-08-03 18:42:00,78.4,65.7,29.88,North,350,1.0,5.0,65,0.00,,---,0.36,338.00,VWS V14.01,2013-08-03 22:42:00,
2013-08-03 18:45:00,78.4,65.7,29.88,NNW,337,2.0,5.0,65,0.00,,---,0.36,329.00,VWS V14.01,2013-08-03 22:45:00,
2013-08-03 18:47:00,78.4,65.2,29.88,NNW,344,3.0,5.0,64,0.00,,---,0.36,318.00,VWS V14.01,2013-08-03 22:47:00,
2013-08-03 18:50:00,78.4,64.8,29.88,NNW,343,3.0,6.0,63,0.00,,---,0.36,301.00,VWS V14.01,2013-08-03 22:50:00,
2013-08-03 18:52:00,78.3,64.2,29.88,North,360,4.0,6.0,62,0.00,,---,0.36,295.00,VWS V14.01,2013-08-03 22:52:00,
2013-08-03 18:55:00,78.1,64.5,29.88,NNW,330,3.0,9.0,63,0.00,,---,0.36,290.00,VWS V14.01,2013-08-03 22:55:00,
2013-08-03 18:57:00,78.0,64.4,29.88,NNW,338,1.0,5.0,63,0.00,,---,0.36,283.00,VWS V14.01,2013-08-03 22:57:00,
2013-08-03 19:00:00,77.9,64.3,29.88,NNW,340,4.0,7.0,63,0.00,,---,0.36,278.00,VWS V14.01,2013-08-03 23:00:00,
2013-08-03 19:02:00,77.8,64.2,29.88,North,360,1.0,5.0,63,0.00,,---,0.36,271.00,VWS V14.01,2013-08-03 23:02:00,
2013-08-03 19:05:00,77.7,64.6,29.88,NNW,345,0.0,5.0,64,0.00,,---,0.36,262.00,VWS V14.01,2013-08-03 23:05:00,
2013-08-03 19:07:00,77.7,64.6,29.88,NNW,338,4.0,4.0,64,0.00,,---,0.36,257.00,VWS V14.01,2013-08-03 23:07:00,
2013-08-03 19:10:00,77.6,64.5,29.88,NNW,343,2.0,4.0,64,0.00,,---,0.36,251.00,VWS V14.01,2013-08-03 23:10:00,
2013-08-03 19:12:00,77.6,64.9,29.88,NNW,343,4.0,4.0,65,0.00,,---,0.36,241.00,VWS V14.01,2013-08-03 23:12:00,
2013-08-03 19:13:00,77.6,64.9,29.88,NNW,343,1.0,4.0,65,0.00,,---,0.36,241.00,VWS V14.01,2013-08-03 23:13:00,
2013-08-03 19:15:00,77.6,64.5,29.88,NNW,341,4.0,4.0,64,0.00,,---,0.36,236.00,VWS V14.01,2013-08-03 23:15:00,
2013-08-03 19:18:00,77.6,64.9,29.88,NNW,342,5.0,5.0,65,0.00,,---,0.36,225.00,VWS V14.01,2013-08-03 23:18:00,
2013-08-03 19:20:00,77.5,64.8,29.88,NNE,13,4.0,5.0,65,0.00,,---,0.36,220.00,VWS V14.01,2013-08-03 23:20:00,
2013-08-03 19:22:00,77.4,64.7,29.88,North,5,3.0,4.0,65,0.00,,---,0.36,202.00,VWS V14.01,2013-08-03 23:22:00,
2013-08-03 19:25:00,77.3,64.6,29.88,North,5,2.0,4.0,65,0.00,,---,0.36,197.00,VWS V14.01,2013-08-03 23:25:00,
2013-08-03 19:28:00,77.2,65.0,29.88,North,5,1.0,3.0,66,0.00,,---,0.36,172.00,VWS V14.01,2013-08-03 23:28:00,
2013-08-03 19:30:00,77.2,65.4,29.88,North,5,1.0,3.0,67,0.00,,---,0.36,178.00,VWS V14.01,2013-08-03 23:30:00,
2013-08-03 19:33:00,77.1,64.9,29.88,North,5,1.0,3.0,66,0.00,,---,0.36,163.00,VWS V14.01,2013-08-03 23:33:00,
2013-08-03 19:35:00,77.0,65.2,29.88,North,5,0.0,3.0,67,0.00,,---,0.36,156.00,VWS V14.01,2013-08-03 23:35:00,
2013-08-03 19:37:00,76.9,65.1,29.88,North,5,1.0,1.0,67,0.00,,---,0.36,148.00,VWS V14.01,2013-08-03 23:37:00,
2013-08-03 19:40:00,76.9,65.5,29.88,North,5,0.0,1.0,68,0.00,,---,0.36,137.00,VWS V14.01,2013-08-03 23:40:00,
2013-08-03 19:43:00,76.8,65.4,29.88,North,5,0.0,0.0,68,0.00,,---,0.36,128.00,VWS V14.01,2013-08-03 23:43:00,
2013-08-03 19:45:00,76.8,65.4,29.88,North,5,0.0,1.0,68,0.00,,---,0.36,123.00,VWS V14.01,2013-08-03 23:45:00,
2013-08-03 19:48:00,76.8,65.4,29.88,North,5,0.0,1.0,68,0.00,,---,0.36,111.00,VWS V14.01,2013-08-03 23:48:00,
2013-08-03 19:50:00,76.8,65.0,29.88,North,5,0.0,1.0,67,0.00,,---,0.36,105.00,VWS V14.01,2013-08-03 23:50:00,
2013-08-03 19:53:00,76.7,64.5,29.88,North,5,1.0,1.0,66,0.00,,---,0.36,93.00,VWS V14.01,2013-08-03 23:53:00,
2013-08-03 19:55:00,76.7,64.5,29.89,North,5,0.0,1.0,66,0.00,,---,0.36,88.00,VWS V14.01,2013-08-03 23:55:00,
2013-08-03 19:58:00,76.6,64.4,29.89,North,5,0.0,1.0,66,0.00,,---,0.36,77.00,VWS V14.01,2013-08-03 23:58:00,
2013-08-03 20:00:00,76.6,64.4,29.89,North,5,1.0,1.0,66,0.00,,---,0.36,74.00,VWS V14.01,2013-08-04 00:00:00,
2013-08-03 20:03:00,76.5,64.3,29.89,North,5,0.0,1.0,66,0.00,,---,0.36,60.00,VWS V14.01,2013-08-04 00:03:00,
2013-08-03 20:05:00,76.4,64.6,29.89,North,5,0.0,1.0,67,0.00,,---,0.36,47.00,VWS V14.01,2013-08-04 00:05:00,
2013-08-03 20:07:00,76.2,64.4,29.89,North,5,0.0,0.0,67,0.00,,---,0.36,28.00,VWS V14.01,2013-08-04 00:07:00,
2013-08-03 20:10:00,76.2,64.4,29.89,North,5,0.0,1.0,67,0.00,,---,0.36,23.00,VWS V14.01,2013-08-04 00:10:00,
2013-08-03 20:13:00,76.0,64.7,29.89,North,5,0.0,0.0,68,0.00,,---,0.36,19.00,VWS V14.01,2013-08-04 00:13:00,
2013-08-03 20:15:00,75.9,64.6,29.89,North,5,0.0,0.0,68,0.00,,---,0.36,19.00,VWS V14.01,2013-08-04 00:15:00,
2013-08-03 20:18:00,75.7,64.4,29.89,North,5,0.0,0.0,68,0.00,,---,0.36,25.00,VWS V14.01,2013-08-04 00:18:00,
2013-08-03 20:20:00,75.5,64.2,29.89,North,5,0.0,0.0,68,0.00,,---,0.36,23.00,VWS V14.01,2013-08-04 00:20:00,
2013-08-03 20:23:00,75.1,64.2,29.89,North,5,0.0,0.0,69,0.00,,---,0.36,18.00,VWS V14.01,2013-08-04 00:23:00,
2013-08-03 20:25:00,75.0,64.6,29.89,North,5,0.0,0.0,70,0.00,,---,0.36,14.00,VWS V14.01,2013-08-04 00:25:00,
2013-08-03 20:28:00,74.7,64.3,29.89,North,5,0.0,0.0,70,0.00,,---,0.36,12.00,VWS V14.01,2013-08-04 00:28:00,
2013-08-03 20:30:00,74.6,64.2,29.89,North,5,0.0,0.0,70,0.00,,---,0.36,11.00,VWS V14.01,2013-08-04 00:30:00,
2013-08-03 20:33:00,74.2,64.2,29.90,North,5,0.0,0.0,71,0.00,,---,0.36,9.00,VWS V14.01,2013-08-04 00:33:00,
2013-08-03 20:35:00,74.1,64.1,29.90,North,5,0.0,0.0,71,0.00,,---,0.36,7.00,VWS V14.01,2013-08-04 00:35:00,
2013-08-03 20:38:00,73.7,64.1,29.90,North,5,0.0,0.0,72,0.00,,---,0.36,5.00,VWS V14.01,2013-08-04 00:38:00,
2013-08-03 20:40:00,73.5,64.3,29.90,North,5,0.0,0.0,73,0.00,,---,0.36,0.00,VWS V14.01,2013-08-04 00:40:00,
2013-08-03 20:43:00,73.1,63.9,29.90,North,5,0.0,0.0,73,0.00,,---,0.36,0.00,VWS V14.01,2013-08-04 00:43:00,
2013-08-03 20:45:00,72.9,63.8,29.90,North,5,0.0,0.0,73,0.00,,---,0.36,0.00,VWS V14.01,2013-08-04 00:45:00,
2013-08-03 20:48:00,72.5,63.8,29.90,North,5,0.0,0.0,74,0.00,,---,0.36,0.00,VWS V14.01,2013-08-04 00:48:00,
2013-08-03 20:50:00,72.4,64.0,29.90,North,5,0.0,0.0,75,0.00,,---,0.36,0.00,VWS V14.01,2013-08-04 00:50:00,
2013-08-03 20:53:00,72.1,63.8,29.90,North,5,0.0,0.0,75,0.00,,---,0.36,0.00,VWS V14.01,2013-08-04 00:53:00,
2013-08-03 20:55:00,71.9,63.9,29.90,North,5,0.0,0.0,76,0.00,,---,0.36,0.00,VWS V14.01,2013-08-04 00:55:00,
2013-08-03 20:58:00,71.6,63.6,29.90,North,5,0.0,0.0,76,0.00,,---,0.36,0.00,VWS V14.01,2013-08-04 00:58:00,
2013-08-03 21:00:00,71.4,63.5,29.90,North,5,0.0,0.0,76,0.00,,---,0.36,0.00,VWS V14.01,2013-08-04 01:00:00,
2013-08-03 21:03:00,71.0,63.8,29.90,North,5,0.0,0.0,78,0.00,,---,0.36,0.00,VWS V14.01,2013-08-04 01:03:00,
2013-08-03 21:05:00,70.8,63.6,29.90,North,5,0.0,0.0,78,0.00,,---,0.36,0.00,VWS V14.01,2013-08-04 01:05:00,
2013-08-03 21:08:00,70.5,63.3,29.90,North,5,0.0,0.0,78,0.00,,---,0.36,0.00,VWS V14.01,2013-08-04 01:08:00,
2013-08-03 21:10:00,70.3,63.1,29.90,North,5,0.0,0.0,78,0.00,,---,0.36,0.00,VWS V14.01,2013-08-04 01:10:00,
2013-08-03 21:13:00,70.0,63.2,29.90,North,5,0.0,0.0,79,0.00,,---,0.36,0.00,VWS V14.01,2013-08-04 01:13:00,
2013-08-03 21:15:00,69.8,63.0,29.90,North,5,0.0,0.0,79,0.00,,---,0.36,0.00,VWS V14.01,2013-08-04 01:15:00,
2013-08-03 21:18:00,69.5,63.1,29.90,North,5,0.0,0.0,80,0.00,,---,0.36,0.00,VWS V14.01,2013-08-04 01:18:00,
2013-08-03 21:20:00,69.4,63.0,29.90,North,5,0.0,1.0,80,0.00,,---,0.36,0.00,VWS V14.01,2013-08-04 01:20:00,
2013-08-03 21:23:00,69.1,62.7,29.90,North,5,0.0,0.0,80,0.00,,---,0.36,0.00,VWS V14.01,2013-08-04 01:23:00,
2013-08-03 21:25:00,69.0,62.6,29.90,North,5,0.0,0.0,80,0.00,,---,0.36,0.00,VWS V14.01,2013-08-04 01:25:00,
2013-08-03 21:28:00,68.8,62.7,29.90,North,5,0.0,0.0,81,0.00,,---,0.36,0.00,VWS V14.01,2013-08-04 01:28:00,
2013-08-03 21:30:00,68.6,62.5,29.90,North,5,0.0,0.0,81,0.00,,---,0.36,0.00,VWS V14.01,2013-08-04 01:30:00,
2013-08-03 21:33:00,68.4,62.3,29.90,North,5,0.0,0.0,81,0.00,,---,0.36,0.00,VWS V14.01,2013-08-04 01:33:00,
2013-08-03 21:35:00,68.3,62.6,29.91,North,5,0.0,0.0,82,0.00,,---,0.36,0.00,VWS V14.01,2013-08-04 01:35:00,
2013-08-03 21:38:00,68.1,62.4,29.91,North,5,0.0,0.0,82,0.00,,---,0.36,0.00,VWS V14.01,2013-08-04 01:38:00,
2013-08-03 21:40:00,68.0,62.3,29.91,North,5,0.0,0.0,82,0.00,,---,0.36,0.00,VWS V14.01,2013-08-04 01:40:00,
2013-08-03 21:43:00,67.8,62.1,29.91,North,5,0.0,0.0,82,0.00,,---,0.36,0.00,VWS V14.01,2013-08-04 01:43:00,
2013-08-03 21:45:00,67.7,62.0,29.91,North,5,0.0,0.0,82,0.00,,---,0.36,0.00,VWS V14.01,2013-08-04 01:45:00,
2013-08-03 21:48:00,67.4,61.7,29.92,North,5,0.0,0.0,82,0.00,,---,0.36,0.00,VWS V14.01,2013-08-04 01:48:00,
2013-08-03 21:50:00,67.3,61.6,29.92,North,5,0.0,0.0,82,0.00,,---,0.36,0.00,VWS V14.01,2013-08-04 01:50:00,
2013-08-03 21:53:00,67.1,61.4,29.92,North,5,0.0,0.0,82,0.00,,---,0.36,0.00,VWS V14.01,2013-08-04 01:53:00,
2013-08-03 21:55:00,67.0,61.3,29.92,North,5,0.0,0.0,82,0.00,,---,0.36,0.00,VWS V14.01,2013-08-04 01:55:00,
2013-08-03 21:58:00,66.8,61.5,29.92,North,5,0.0,0.0,83,0.00,,---,0.36,0.00,VWS V14.01,2013-08-04 01:58:00,
2013-08-03 22:00:00,66.7,61.4,29.92,North,5,0.0,0.0,83,0.00,,---,0.36,0.00,VWS V14.01,2013-08-04 02:00:00,
2013-08-03 22:03:00,66.5,61.5,29.91,North,5,0.0,0.0,84,0.00,,---,0.36,0.00,VWS V14.01,2013-08-04 02:03:00,
2013-08-03 22:05:00,66.4,61.8,29.91,North,5,0.0,0.0,85,0.00,,---,0.36,0.00,VWS V14.01,2013-08-04 02:05:00,
2013-08-03 22:08:00,66.2,61.6,29.92,North,5,0.0,0.0,85,0.00,,---,0.36,0.00,VWS V14.01,2013-08-04 02:08:00,
2013-08-03 22:10:00,66.1,61.5,29.92,North,5,0.0,0.0,85,0.00,,---,0.36,0.00,VWS V14.01,2013-08-04 02:10:00,
2013-08-03 22:13:00,65.8,61.2,29.92,North,5,0.0,0.0,85,0.00,,---,0.36,0.00,VWS V14.01,2013-08-04 02:13:00,
2013-08-03 22:15:00,65.8,61.2,29.92,North,5,0.0,0.0,85,0.00,,---,0.36,0.00,VWS V14.01,2013-08-04 02:15:00,
2013-08-03 22:18:00,65.6,61.3,29.91,North,5,0.0,0.0,86,0.00,,---,0.36,0.00,VWS V14.01,2013-08-04 02:18:00,
2013-08-03 22:20:00,65.5,61.2,29.92,North,5,0.0,0.0,86,0.00,,---,0.36,0.00,VWS V14.01,2013-08-04 02:20:00,
2013-08-03 22:23:00,65.3,61.0,29.92,North,5,0.0,0.0,86,0.00,,---,0.36,0.00,VWS V14.01,2013-08-04 02:23:00,
2013-08-03 22:25:00,65.2,60.9,29.92,North,5,0.0,0.0,86,0.00,,---,0.36,0.00,VWS V14.01,2013-08-04 02:25:00,
2013-08-03 22:28:00,65.0,61.0,29.92,North,5,0.0,0.0,87,0.00,,---,0.36,0.00,VWS V14.01,2013-08-04 02:28:00,
2013-08-03 22:30:00,65.0,61.0,29.92,North,5,0.0,0.0,87,0.00,,---,0.36,0.00,VWS V14.01,2013-08-04 02:30:00,
2013-08-03 22:33:00,64.7,60.8,29.92,North,5,0.0,0.0,87,0.00,,---,0.36,0.00,VWS V14.01,2013-08-04 02:33:00,
2013-08-03 22:35:00,64.7,60.8,29.92,North,5,0.0,0.0,87,0.00,,---,0.36,0.00,VWS V14.01,2013-08-04 02:35:00,
2013-08-03 22:38:00,64.5,60.5,29.92,North,5,0.0,0.0,87,0.00,,---,0.36,0.00,VWS V14.01,2013-08-04 02:38:00,
2013-08-03 22:40:00,64.4,60.8,29.92,North,5,0.0,0.0,88,0.00,,---,0.36,0.00,VWS V14.01,2013-08-04 02:40:00,
2013-08-03 22:43:00,64.3,60.7,29.92,North,5,0.0,0.0,88,0.00,,---,0.36,0.00,VWS V14.01,2013-08-04 02:43:00,
2013-08-03 22:45:00,64.3,60.7,29.92,North,5,0.0,0.0,88,0.00,,---,0.36,0.00,VWS V14.01,2013-08-04 02:45:00,
2013-08-03 22:48:00,64.1,60.5,29.92,North,5,0.0,0.0,88,0.00,,---,0.36,0.00,VWS V14.01,2013-08-04 02:48:00,
2013-08-03 22:50:00,64.1,60.5,29.92,North,5,0.0,0.0,88,0.00,,---,0.36,0.00,VWS V14.01,2013-08-04 02:50:00,
2013-08-03 22:53:00,63.9,60.3,29.92,North,5,0.0,0.0,88,0.00,,---,0.36,0.00,VWS V14.01,2013-08-04 02:53:00,
2013-08-03 22:55:00,63.9,60.3,29.92,North,5,0.0,0.0,88,0.00,,---,0.36,0.00,VWS V14.01,2013-08-04 02:55:00,
2013-08-03 22:58:00,63.7,60.4,29.92,North,5,0.0,0.0,89,0.00,,---,0.36,0.00,VWS V14.01,2013-08-04 02:58:00,
2013-08-03 23:00:00,63.6,60.0,29.92,North,5,0.0,0.0,88,0.00,,---,0.36,0.00,VWS V14.01,2013-08-04 03:00:00,
2013-08-03 23:03:00,63.5,60.2,29.93,North,5,0.0,0.0,89,0.00,,---,0.36,0.00,VWS V14.01,2013-08-04 03:03:00,
2013-08-03 23:05:00,63.4,60.1,29.93,North,5,0.0,0.0,89,0.00,,---,0.36,0.00,VWS V14.01,2013-08-04 03:05:00,
2013-08-03 23:08:00,63.3,60.0,29.93,North,5,0.0,0.0,89,0.00,,---,0.36,0.00,VWS V14.01,2013-08-04 03:08:00,
2013-08-03 23:10:00,63.3,60.0,29.93,North,5,0.0,0.0,89,0.00,,---,0.36,0.00,VWS V14.01,2013-08-04 03:10:00,
2013-08-03 23:13:00,63.1,59.8,29.93,North,5,0.0,0.0,89,0.00,,---,0.36,0.00,VWS V14.01,2013-08-04 03:13:00,
2013-08-03 23:15:00,63.0,59.7,29.93,North,5,0.0,0.0,89,0.00,,---,0.36,0.00,VWS V14.01,2013-08-04 03:15:00,
2013-08-03 23:18:00,62.9,59.6,29.93,North,5,0.0,0.0,89,0.00,,---,0.36,0.00,VWS V14.01,2013-08-04 03:18:00,
2013-08-03 23:20:00,62.9,59.6,29.93,North,5,0.0,0.0,89,0.00,,---,0.36,0.00,VWS V14.01,2013-08-04 03:20:00,
2013-08-03 23:24:00,62.8,59.8,29.93,North,5,0.0,0.0,90,0.00,,---,0.36,0.00,VWS V14.01,2013-08-04 03:24:00,
2013-08-03 23:25:00,62.7,59.7,29.93,North,5,0.0,0.0,90,0.00,,---,0.36,0.00,VWS V14.01,2013-08-04 03:25:00,
2013-08-03 23:29:00,62.7,60.0,29.93,North,5,0.0,0.0,91,0.00,,---,0.36,0.00,VWS V14.01,2013-08-04 03:29:00,
2013-08-03 23:30:00,62.7,60.0,29.93,North,5,0.0,0.0,91,0.00,,---,0.36,0.00,VWS V14.01,2013-08-04 03:30:00,
2013-08-03 23:34:00,62.5,59.8,29.93,North,5,0.0,0.0,91,0.00,,---,0.36,0.00,VWS V14.01,2013-08-04 03:34:00,
2013-08-03 23:35:00,62.5,59.8,29.93,North,5,0.0,0.0,91,0.00,,---,0.36,0.00,VWS V14.01,2013-08-04 03:35:00,
2013-08-03 23:39:00,62.4,59.7,29.93,North,5,0.0,0.0,91,0.00,,---,0.36,0.00,VWS V14.01,2013-08-04 03:39:00,
2013-08-03 23:40:00,62.4,59.7,29.93,North,5,0.0,0.0,91,0.00,,---,0.36,0.00,VWS V14.01,2013-08-04 03:40:00,
2013-08-03 23:44:00,62.2,59.5,29.93,North,5,0.0,0.0,91,0.00,,---,0.36,0.00,VWS V14.01,2013-08-04 03:44:00,
2013-08-03 23:45:00,62.2,59.5,29.93,North,5,0.0,0.0,91,0.00,,---,0.36,0.00,VWS V14.01,2013-08-04 03:45:00,
2013-08-03 23:49:00,62.1,59.8,29.93,North,5,0.0,0.0,92,0.00,,---,0.36,0.00,VWS V14.01,2013-08-04 03:49:00,
2013-08-03 23:50:00,62.1,59.8,29.93,North,5,0.0,0.0,92,0.00,,---,0.36,0.00,VWS V14.01,2013-08-04 03:50:00,
2013-08-03 23:54:00,62.0,59.7,29.93,North,5,0.0,0.0,92,0.00,,---,0.36,0.00,VWS V14.01,2013-08-04 03:54:00,
2013-08-03 23:55:00,62.0,59.7,29.93,North,5,0.0,0.0,92,0.00,,---,0.36,0.00,VWS V14.01,2013-08-04 03:55:00,
2013-08-03 23:59:00,61.8,59.8,29.93,North,5,0.0,0.0,93,0.00,,---,0.36,0.00,VWS V14.01,2013-08-04 03:59:00,